Time;durP1;ratioP1;P1;durP2;ratioP2;P2;SDS_P1;SDS_P2;PMS_P1;PMS_P2;Temp;Humidity;BMP_temperature;BMP_pressure;BME280_temperature;BME280_humidity;BME280_pressure;Samples;Min_cycle;Max_cycle;Signal;HPM_P1;HPM_P2
2022/05/19 00:00:03;;;;;;;4.55;2.65;;;;;;;10.64;66.22;95683.97;4157871;28;20060;-56
2022/05/19 00:02:07;;;;;;;4.88;2.42;;;;;;;10.58;66.41;95688.94;4159573;28;20111;-49
2022/05/19 00:04:09;;;;;;;5.40;2.28;;;;;;;10.62;66.71;95693.78;4159200;28;20468;-54
2022/05/19 00:06:11;;;;;;;3.65;2.08;;;;;;;10.65;66.09;95679.59;4159409;28;20505;-51
2022/05/19 00:08:13;;;;;;;4.72;2.17;;;;;;;10.72;66.03;95677.25;4163002;28;21661;-50
2022/05/19 00:10:14;;;;;;;4.38;2.40;;;;;;;10.77;65.50;95675.88;4159404;28;20521;-54
2022/05/19 00:12:19;;;;;;;4.07;2.80;;;;;;;10.78;65.33;95676.72;4159331;28;20320;-55
2022/05/19 00:14:21;;;;;;;5.85;2.58;;;;;;;10.79;65.58;95681.81;4159234;28;20115;-54
2022/05/19 00:16:22;;;;;;;5.63;2.58;;;;;;;10.84;65.54;95681.38;4159277;28;20053;-52
2022/05/19 00:18:25;;;;;;;4.32;2.88;;;;;;;10.89;65.64;95681.00;4159236;28;20366;-56
2022/05/19 00:20:26;;;;;;;4.70;3.28;;;;;;;10.92;65.59;95678.09;4159257;28;20126;-54
2022/05/19 00:22:28;;;;;;;6.72;3.40;;;;;;;10.91;65.48;95681.69;4159722;28;20164;-55
2022/05/19 00:24:30;;;;;;;4.90;3.25;;;;;;;10.89;65.80;95684.44;4164001;28;20049;-51
2022/05/19 00:26:32;;;;;;;6.05;3.10;;;;;;;10.65;66.54;95690.91;4175773;28;20117;-52
2022/05/19 00:28:34;;;;;;;4.40;2.90;;;;;;;10.54;67.15;95683.16;4175587;28;20099;-55
2022/05/19 00:30:37;;;;;;;5.53;4.00;;;;;;;10.51;66.62;95686.03;4175780;28;20468;-52
2022/05/19 00:32:39;;;;;;;3.88;3.03;;;;;;;10.51;67.40;95690.44;4176076;28;20291;-54
2022/05/19 00:34:40;;;;;;;3.90;2.85;;;;;;;10.38;67.07;95691.50;4175327;28;20057;-51
2022/05/19 00:36:42;;;;;;;4.63;2.88;;;;;;;10.31;67.65;95690.41;4176007;28;20126;-53
2022/05/19 00:38:45;;;;;;;4.47;3.20;;;;;;;10.33;67.45;95696.34;4177000;28;20061;-50
2022/05/19 00:40:53;;;;;;;3.83;2.90;;;;;;;10.20;67.34;95700.94;4178816;28;20072;-56
2022/05/19 00:42:54;;;;;;;5.75;3.42;;;;;;;10.01;68.03;95699.06;4178885;28;20459;-53
2022/05/19 00:44:56;;;;;;;4.72;3.20;;;;;;;10.05;67.76;95698.69;4178805;28;20479;-53
2022/05/19 00:46:58;;;;;;;9.32;3.55;;;;;;;10.07;67.39;95700.31;4179005;28;20382;-55
2022/05/19 00:49:07;;;;;;;10.15;3.55;;;;;;;9.96;67.28;95701.22;4168320;28;20045;-53
2022/05/19 00:51:10;;;;;;;5.00;3.25;;;;;;;9.60;68.67;95706.00;4160695;28;20091;-52
2022/05/19 00:53:20;;;;;;;4.03;2.78;;;;;;;9.63;69.04;95705.75;4160780;28;20530;-52
2022/05/19 00:55:26;;;;;;;4.47;3.50;;;;;;;9.78;68.58;95707.06;4161961;28;20052;-54
2022/05/19 00:57:30;;;;;;;5.18;3.78;;;;;;;9.76;68.19;95706.38;4160653;28;20053;-51
2022/05/19 00:59:43;;;;;;;4.85;3.40;;;;;;;9.65;68.54;95716.91;4173931;28;20130;-52
2022/05/19 01:01:45;;;;;;;6.75;3.33;;;;;;;9.50;69.76;95707.72;4174450;28;20049;-52
2022/05/19 01:03:58;;;;;;;6.40;3.53;;;;;;;9.19;70.15;95712.88;4176682;28;20096;-53
2022/05/19 01:06:03;;;;;;;6.75;4.30;;;;;;;9.10;71.59;95716.22;4177271;28;20138;-54
2022/05/19 01:08:08;;;;;;;5.82;3.80;;;;;;;9.27;71.50;95720.09;4167840;28;20049;-56
2022/05/19 01:10:10;;;;;;;5.32;3.92;;;;;;;9.48;70.82;95720.09;4165283;28;20421;-54
2022/05/19 01:12:12;;;;;;;6.60;3.78;;;;;;;9.68;69.90;95719.28;4161946;28;20478;-55
2022/05/19 01:14:14;;;;;;;8.57;3.60;;;;;;;9.86;69.05;95722.13;4161954;28;20053;-54
2022/05/19 01:16:16;;;;;;;8.48;3.65;;;;;;;10.03;68.80;95723.34;4161823;28;20045;-53
2022/05/19 01:18:18;;;;;;;5.20;3.58;;;;;;;10.13;67.80;95723.34;4170492;28;20360;-56
2022/05/19 01:20:22;;;;;;;5.60;3.60;;;;;;;10.16;67.85;95721.31;4178409;28;20118;-52
2022/05/19 01:22:35;;;;;;;7.95;3.38;;;;;;;10.21;67.45;95720.91;4167501;28;20053;-55
2022/05/19 01:24:49;;;;;;;8.07;4.20;;;;;;;10.22;67.18;95723.41;4160161;28;20050;-53
2022/05/19 01:26:57;;;;;;;6.40;3.55;;;;;;;10.31;67.03;95726.25;4161690;28;20053;-54
2022/05/19 01:28:59;;;;;;;7.15;3.80;;;;;;;10.36;66.69;95722.25;4161907;28;20187;-53
2022/05/19 01:31:00;;;;;;;5.63;3.58;;;;;;;10.39;66.66;95713.28;4161685;28;20056;-52
2022/05/19 01:33:03;;;;;;;7.32;3.60;;;;;;;10.40;66.50;95726.25;4164745;28;20170;-55
2022/05/19 01:35:05;;;;;;;5.85;3.47;;;;;;;10.43;65.86;95720.78;4178247;28;20057;-53
2022/05/19 01:37:07;;;;;;;5.32;3.53;;;;;;;10.43;66.13;95722.53;4178452;28;20041;-53
2022/05/19 01:39:15;;;;;;;4.18;3.00;;;;;;;10.45;66.72;95728.47;4176392;28;20579;-54
2022/05/19 01:41:58;;;;;;;5.97;3.30;;;;;;;10.38;66.93;95720.31;4178236;28;20045;-52
2022/05/19 01:44:09;;;;;;;7.70;3.20;;;;;;;10.19;66.41;95728.91;4176895;28;20064;-53
2022/05/19 01:46:33;;;;;;;4.18;3.05;;;;;;;9.87;67.64;95731.63;4178270;28;20087;-53
2022/05/19 01:49:05;;;;;;;5.72;3.72;;;;;;;9.50;68.21;95729.47;4169886;28;20061;-53
2022/05/19 01:51:10;;;;;;;4.35;3.08;;;;;;;9.27;70.13;95735.78;4161766;28;20207;-54
2022/05/19 01:53:17;;;;;;;7.50;3.63;;;;;;;9.35;70.48;95742.03;4159834;28;20057;-55
2022/05/19 01:55:24;;;;;;;6.25;3.92;;;;;;;9.25;70.23;95740.28;4159486;28;20058;-54
2022/05/19 01:57:34;;;;;;;9.05;4.95;;;;;;;9.08;71.49;95742.50;4159896;28;20564;-51
2022/05/19 01:59:55;;;;;;;10.18;6.35;;;;;;;9.14;72.14;95746.41;4161548;28;20061;-52
2022/05/19 02:02:04;;;;;;;8.95;6.63;;;;;;;9.29;71.51;95745.19;4161276;28;20049;-49
2022/05/19 02:04:20;;;;;;;12.05;7.25;;;;;;;9.43;71.40;95744.84;4159168;28;20063;-53
2022/05/19 02:06:28;;;;;;;12.20;7.15;;;;;;;9.61;70.64;95744.28;4160169;28;20797;-53
2022/05/19 02:08:34;;;;;;;10.80;7.18;;;;;;;9.76;70.03;95745.63;4160651;28;20057;-54
2022/05/19 02:10:42;;;;;;;12.75;7.65;;;;;;;9.86;70.03;95742.25;4165525;28;20065;-55
2022/05/19 02:12:45;;;;;;;9.95;6.97;;;;;;;9.96;69.21;95740.50;4161550;28;20061;-54
2022/05/19 02:14:50;;;;;;;10.73;7.43;;;;;;;10.03;68.58;95750.34;4159470;28;20095;-53
2022/05/19 02:16:52;;;;;;;11.10;7.93;;;;;;;10.12;68.34;95742.66;4159814;28;20079;-55
2022/05/19 02:18:54;;;;;;;10.38;7.30;;;;;;;10.17;68.44;95738.66;4160565;28;20127;-52
2022/05/19 02:20:58;;;;;;;9.50;6.43;;;;;;;10.22;67.68;95738.31;4159392;28;20057;-54
2022/05/19 02:23:00;;;;;;;12.02;7.53;;;;;;;10.21;67.89;95745.31;4159268;28;20099;-53
2022/05/19 02:25:20;;;;;;;14.05;7.45;;;;;;;9.87;68.32;95749.13;4161228;28;20075;-53
2022/05/19 02:27:48;;;;;;;13.00;7.90;;;;;;;9.54;69.71;95753.59;4166047;28;20099;-52
2022/05/19 02:29:50;;;;;;;9.80;7.28;;;;;;;9.56;70.75;95752.53;4175654;28;20144;-50
2022/05/19 02:31:52;;;;;;;11.13;7.45;;;;;;;9.71;70.47;95745.19;4175738;28;20053;-49
2022/05/19 02:33:54;;;;;;;9.88;7.15;;;;;;;9.89;70.43;95750.66;4176903;28;20418;-58
2022/05/19 02:35:56;;;;;;;11.07;7.25;;;;;;;10.07;69.29;95745.69;4177451;28;20060;-53
2022/05/19 02:37:58;;;;;;;11.45;8.07;;;;;;;10.14;70.02;95741.56;4175654;28;20195;-52
2022/05/19 02:40:00;;;;;;;12.07;7.60;;;;;;;10.14;69.60;95745.97;4176566;28;20458;-52
2022/05/19 02:42:02;;;;;;;14.05;9.57;;;;;;;10.20;69.77;95751.53;4176842;28;20425;-51
2022/05/19 02:44:04;;;;;;;19.92;8.60;;;;;;;10.32;69.23;95746.22;4176149;28;20130;-49
2022/05/19 02:46:06;;;;;;;9.70;7.20;;;;;;;10.40;68.76;95746.41;4176618;28;20099;-52
2022/05/19 02:48:09;;;;;;;14.10;8.70;;;;;;;10.47;68.38;95742.28;4173045;28;20053;-50
2022/05/19 02:50:12;;;;;;;11.77;8.35;;;;;;;10.49;67.92;95745.59;4159936;28;20114;-54
2022/05/19 02:52:16;;;;;;;12.48;7.03;;;;;;;10.58;67.44;95746.59;4164323;28;20111;-54
2022/05/19 02:54:21;;;;;;;11.35;8.13;;;;;;;10.64;66.77;95749.50;4172517;28;20134;-54
2022/05/19 02:56:22;;;;;;;10.25;7.50;;;;;;;10.59;67.13;95745.63;4176529;28;20118;-53
2022/05/19 02:58:24;;;;;;;12.70;7.28;;;;;;;10.60;67.30;95749.91;4164822;28;20053;-51
2022/05/19 03:00:26;;;;;;;14.30;8.05;;;;;;;10.60;67.77;95745.50;4160049;28;20053;-49
2022/05/19 03:02:28;;;;;;;10.98;8.57;;;;;;;10.61;68.28;95744.53;4160528;28;20053;-51
2022/05/19 03:04:30;;;;;;;16.58;7.88;;;;;;;10.69;67.37;95741.25;4159730;28;20057;-52
2022/05/19 03:06:32;;;;;;;10.63;7.00;;;;;;;10.75;66.92;95750.34;4159927;28;20048;-57
2022/05/19 03:08:34;;;;;;;13.25;7.95;;;;;;;10.72;66.87;95753.25;4158104;28;20061;-53
2022/05/19 03:10:38;;;;;;;9.85;7.45;;;;;;;10.65;66.47;95750.34;4162497;28;20594;-47
2022/05/19 03:12:40;;;;;;;9.35;7.13;;;;;;;10.64;66.83;95754.75;4162131;28;20065;-53
2022/05/19 03:14:42;;;;;;;10.80;7.47;;;;;;;10.71;66.93;95754.22;4163959;28;20605;-48
2022/05/19 03:16:44;;;;;;;10.30;6.68;;;;;;;10.74;66.18;95754.78;4176469;28;20098;-50
2022/05/19 03:18:46;;;;;;;13.35;6.20;;;;;;;10.76;65.49;95746.78;4176261;28;20472;-52
2022/05/19 03:20:47;;;;;;;10.80;5.88;;;;;;;10.71;65.33;95751.59;4176232;28;20080;-55
2022/05/19 03:22:49;;;;;;;12.10;6.25;;;;;;;10.63;66.29;95760.97;4161942;28;20063;-53
2022/05/19 03:24:51;;;;;;;14.10;6.40;;;;;;;10.60;65.70;95752.53;4158671;28;20118;-50
2022/05/19 03:26:53;;;;;;;10.70;5.43;;;;;;;10.33;66.05;95758.38;4163937;28;21319;-52
2022/05/19 03:28:55;;;;;;;11.80;5.35;;;;;;;10.12;66.39;95759.19;4176494;28;20068;-54
2022/05/19 03:30:56;;;;;;;7.35;5.57;;;;;;;9.95;66.33;95767.66;4176326;28;20343;-53
2022/05/19 03:32:59;;;;;;;8.57;4.70;;;;;;;9.66;66.58;95772.69;4175924;28;20070;-53
2022/05/19 03:35:00;;;;;;;11.27;5.55;;;;;;;9.57;68.06;95774.28;4176256;28;20245;-51
2022/05/19 03:37:04;;;;;;;7.97;4.68;;;;;;;9.52;68.05;95782.50;4176128;28;20486;-50
2022/05/19 03:39:06;;;;;;;;;;;;;;;9.61;67.58;95781.75;4175312;28;20273;-49
2022/05/19 03:41:07;;;;;;;7.20;4.40;;;;;;;9.76;66.94;95786.66;4176156;28;20046;-52
2022/05/19 03:43:09;;;;;;;6.93;4.43;;;;;;;9.91;66.56;95785.38;4176314;28;20464;-49
2022/05/19 03:45:13;;;;;;;;;;;;;;;10.01;65.99;95778.44;4176658;28;20670;-50
2022/05/19 03:47:14;;;;;;;7.80;4.65;;;;;;;10.13;65.54;95786.19;4176212;28;19982;-49
2022/05/19 03:49:16;;;;;;;10.18;4.93;;;;;;;10.11;65.62;95791.59;4163412;28;20061;-50
2022/05/19 03:51:23;;;;;;;7.20;4.43;;;;;;;10.14;65.59;95788.69;4159425;28;20191;-48
2022/05/19 03:53:25;;;;;;;8.88;4.90;;;;;;;10.16;65.92;95785.97;4157943;28;20061;-49
2022/05/19 03:55:27;;;;;;;10.75;4.55;;;;;;;10.21;64.99;95792.44;4159616;28;20127;-51
2022/05/19 03:57:28;;;;;;;8.43;4.45;;;;;;;10.28;65.53;95800.59;4159327;28;20045;-52
2022/05/19 03:59:30;;;;;;;7.43;4.75;;;;;;;10.33;65.25;95802.91;4159368;28;20123;-48
2022/05/19 04:01:32;;;;;;;7.03;4.05;;;;;;;10.32;64.62;95803.84;4159643;28;20057;-51
2022/05/19 04:03:34;;;;;;;6.30;4.20;;;;;;;10.43;64.43;95806.38;4164180;28;20057;-51
2022/05/19 04:05:36;;;;;;;6.03;4.15;;;;;;;10.47;64.13;95805.16;4175808;28;20446;-52
2022/05/19 04:07:38;;;;;;;7.13;3.92;;;;;;;10.57;63.99;95808.66;4175990;28;20071;-52
2022/05/19 04:09:39;;;;;;;7.80;3.95;;;;;;;10.61;63.60;95810.03;4174049;28;20080;-50
2022/05/19 04:11:41;;;;;;;6.97;4.10;;;;;;;10.63;63.29;95804.69;4168780;28;20473;-52
2022/05/19 04:13:43;;;;;;;8.45;4.95;;;;;;;10.66;63.43;95812.25;4158804;28;20053;-53
2022/05/19 04:15:45;;;;;;;13.93;5.22;;;;;;;10.65;63.70;95803.59;4159582;28;20064;-51
2022/05/19 04:17:46;;;;;;;6.47;4.78;;;;;;;10.70;63.53;95810.22;4159200;28;20041;-51
2022/05/19 04:19:48;;;;;;;7.53;5.35;;;;;;;10.68;63.62;95812.13;4158872;28;20564;-53
2022/05/19 04:21:50;;;;;;;8.60;5.25;;;;;;;10.69;63.91;95812.00;4159165;28;20115;-50
2022/05/19 04:23:51;;;;;;;7.97;5.40;;;;;;;10.72;63.74;95814.34;4157910;28;20057;-49
2022/05/19 04:25:54;;;;;;;8.38;5.45;;;;;;;10.67;64.01;95821.81;4159549;28;20057;-49
2022/05/19 04:27:57;;;;;;;8.40;5.60;;;;;;;10.46;64.50;95819.22;4159369;28;20053;-51
2022/05/19 04:29:58;;;;;;;12.73;6.13;;;;;;;10.38;65.58;95813.81;4160916;28;20095;-52
2022/05/19 04:32:07;;;;;;;10.25;6.00;;;;;;;10.35;65.63;95816.69;4175569;28;20130;-53
2022/05/19 04:34:08;;;;;;;10.45;6.25;;;;;;;10.44;65.62;95816.72;4175275;28;20076;-52
2022/05/19 04:36:10;;;;;;;8.80;6.57;;;;;;;10.41;65.62;95819.63;4175720;28;20132;-49
2022/05/19 04:38:15;;;;;;;9.38;6.32;;;;;;;10.47;64.91;95822.66;4173797;28;20051;-50
2022/05/19 04:40:18;;;;;;;9.55;6.70;;;;;;;10.51;64.94;95824.06;4175588;28;20118;-49
2022/05/19 04:42:20;;;;;;;8.40;7.00;;;;;;;10.61;65.41;95823.16;4175455;28;20091;-54
2022/05/19 04:44:21;;;;;;;10.75;6.45;;;;;;;10.70;65.01;95818.09;4175412;28;20122;-51
2022/05/19 04:46:23;;;;;;;13.68;7.05;;;;;;;10.78;64.47;95824.31;4175975;28;20049;-55
2022/05/19 04:48:26;;;;;;;9.18;6.53;;;;;;;10.90;64.04;95824.22;4169631;28;20077;-52
2022/05/19 04:50:28;;;;;;;8.65;6.95;;;;;;;10.98;64.27;95825.19;4159070;28;20049;-50
2022/05/19 04:52:30;;;;;;;11.20;6.82;;;;;;;11.00;63.79;95827.69;4159194;28;20061;-52
2022/05/19 04:54:32;;;;;;;11.20;7.07;;;;;;;10.66;65.00;95825.38;4157551;28;20050;-52
2022/05/19 04:56:33;;;;;;;10.68;7.70;;;;;;;10.43;66.01;95825.56;4161337;28;20635;-52
2022/05/19 04:58:35;;;;;;;11.38;7.30;;;;;;;10.42;66.15;95833.53;4159153;28;20049;-51
2022/05/19 05:00:37;;;;;;;9.48;6.38;;;;;;;10.55;65.93;95834.16;4159156;28;20053;-49
2022/05/19 05:02:39;;;;;;;11.85;7.43;;;;;;;10.70;65.12;95836.44;4158771;28;20449;-50
2022/05/19 05:04:41;;;;;;;11.10;6.63;;;;;;;10.62;65.28;95840.50;4172879;28;20080;-50
2022/05/19 05:06:43;;;;;;;12.02;7.50;;;;;;;10.65;65.57;95839.44;4175395;28;20124;-51
2022/05/19 05:08:45;;;;;;;16.20;7.10;;;;;;;10.57;66.06;95840.09;4173007;28;20060;-51
2022/05/19 05:10:47;;;;;;;18.58;7.28;;;;;;;10.30;66.70;95845.03;4175267;28;20531;-50
2022/05/19 05:12:48;;;;;;;8.63;7.00;;;;;;;10.11;67.54;95851.81;4164670;28;20107;-48
2022/05/19 05:14:51;;;;;;;10.88;7.43;;;;;;;10.10;68.46;95847.50;4173320;28;20126;-53
2022/05/19 05:16:54;;;;;;;10.98;7.60;;;;;;;9.99;67.76;95855.44;4175275;28;20115;-50
2022/05/19 05:18:56;;;;;;;9.25;7.22;;;;;;;9.92;68.23;95847.25;4175097;28;20049;-51
2022/05/19 05:20:57;;;;;;;13.20;8.20;;;;;;;9.97;68.22;95849.50;4175322;28;20134;-51
2022/05/19 05:22:59;;;;;;;12.88;7.88;;;;;;;9.98;68.90;95844.13;4158848;28;20053;-52
2022/05/19 05:25:06;;;;;;;12.23;7.38;;;;;;;10.15;68.59;95847.97;4160259;28;20072;-53
2022/05/19 05:27:08;;;;;;;12.05;7.88;;;;;;;10.41;66.77;95853.66;4161852;28;20053;-54
2022/05/19 05:29:10;;;;;;;12.30;6.97;;;;;;;10.60;66.39;95852.09;4161954;28;20386;-52
2022/05/19 05:31:12;;;;;;;10.75;7.15;;;;;;;10.83;65.77;95842.25;4161468;28;20065;-50
2022/05/19 05:33:14;;;;;;;10.25;6.63;;;;;;;10.96;65.21;95847.28;4172182;28;20057;-50
2022/05/19 05:35:16;;;;;;;11.07;6.80;;;;;;;11.11;64.68;95848.56;4178307;28;20222;-51
2022/05/19 05:37:17;;;;;;;11.85;7.15;;;;;;;11.30;64.36;95846.97;4178005;28;20091;-49
2022/05/19 05:39:19;;;;;;;10.80;7.32;;;;;;;11.56;63.78;95847.25;4176599;28;20195;-49
2022/05/19 05:41:21;;;;;;;8.95;6.53;;;;;;;11.79;63.42;95853.09;4178067;28;20065;-50
2022/05/19 05:43:22;;;;;;;11.85;6.30;;;;;;;12.00;62.70;95853.81;4177979;28;20041;-51
2022/05/19 05:45:24;;;;;;;9.90;6.63;;;;;;;12.17;61.75;95860.13;4177916;28;20425;-50
2022/05/19 05:47:26;;;;;;;10.52;6.72;;;;;;;12.28;61.02;95859.13;4177657;28;20048;-51
2022/05/19 05:49:28;;;;;;;11.15;6.32;;;;;;;12.29;61.62;95853.75;4163622;28;20482;-52
2022/05/19 05:51:29;;;;;;;10.45;6.90;;;;;;;12.45;62.02;95854.94;4161398;28;20057;-53
2022/05/19 05:53:31;;;;;;;12.32;6.93;;;;;;;12.61;60.61;95847.31;4159773;28;20057;-51
2022/05/19 05:55:34;;;;;;;8.77;6.05;;;;;;;12.65;60.04;95853.94;4161063;28;20057;-52
2022/05/19 05:57:36;;;;;;;11.00;7.28;;;;;;;12.41;60.81;95850.94;4161178;28;20566;-51
2022/05/19 05:59:38;;;;;;;14.50;7.95;;;;;;;12.38;61.08;95859.13;4161534;28;20084;-52
2022/05/19 06:01:39;;;;;;;18.42;7.88;;;;;;;12.42;61.61;95857.88;4161323;28;20413;-51
2022/05/19 06:03:44;;;;;;;12.18;7.60;;;;;;;12.35;61.71;95862.06;4167121;28;20110;-54
2022/05/19 06:05:46;;;;;;;13.95;7.28;;;;;;;12.14;62.44;95860.41;4177594;28;20130;-53
2022/05/19 06:07:47;;;;;;;9.32;6.50;;;;;;;12.19;62.61;95863.44;4177613;28;20045;-54
2022/05/19 06:09:50;;;;;;;12.43;7.20;;;;;;;12.17;62.08;95862.75;4176001;28;20126;-52
2022/05/19 06:11:52;;;;;;;18.27;7.43;;;;;;;12.09;62.88;95867.91;4177724;28;20119;-53
2022/05/19 06:13:54;;;;;;;11.38;7.45;;;;;;;12.09;62.55;95867.91;4167504;28;20061;-54
2022/05/19 06:15:56;;;;;;;15.18;7.80;;;;;;;12.35;62.19;95867.31;4174241;28;20065;-55
2022/05/19 06:17:58;;;;;;;9.68;7.20;;;;;;;12.40;62.04;95860.63;4177016;28;20540;-54
2022/05/19 06:19:59;;;;;;;13.88;7.53;;;;;;;12.46;61.83;95864.50;4177442;28;20070;-49
2022/05/19 06:22:01;;;;;;;12.48;7.55;;;;;;;12.55;61.16;95868.09;4170079;28;20053;-51
2022/05/19 06:24:08;;;;;;;12.88;7.10;;;;;;;12.64;60.48;95865.41;4159328;28;20441;-53
2022/05/19 06:26:09;;;;;;;9.90;6.57;;;;;;;12.42;61.67;95857.88;4159953;28;20203;-50
2022/05/19 06:28:11;;;;;;;8.65;6.65;;;;;;;12.38;62.40;95873.09;4161006;28;20502;-54
2022/05/19 06:30:14;;;;;;;9.82;5.78;;;;;;;11.90;63.14;95873.97;4160904;28;20065;-52
2022/05/19 06:32:15;;;;;;;8.32;5.80;;;;;;;11.97;63.02;95864.56;4163518;28;20455;-54
2022/05/19 06:34:17;;;;;;;10.15;5.97;;;;;;;12.05;63.10;95867.34;4177108;28;20504;-53
2022/05/19 06:36:20;;;;;;;7.55;5.43;;;;;;;11.82;63.01;95866.75;4177040;28;20156;-52
2022/05/19 06:38:22;;;;;;;11.05;6.07;;;;;;;11.95;63.78;95871.75;4175481;28;20071;-51
2022/05/19 06:40:25;;;;;;;9.60;4.70;;;;;;;12.16;62.79;95870.78;4177364;28;20056;-51
2022/05/19 06:42:27;;;;;;;7.47;5.10;;;;;;;12.44;61.65;95866.44;4177068;28;20064;-52
2022/05/19 06:44:37;;;;;;;9.07;4.97;;;;;;;12.73;60.77;95860.28;4176998;28;20088;-52
2022/05/19 06:46:39;;;;;;;6.43;4.90;;;;;;;12.80;59.87;95872.72;4177429;28;20244;-54
2022/05/19 06:48:41;;;;;;;10.48;5.28;;;;;;;12.68;59.56;95868.59;4165261;28;20409;-55
2022/05/19 06:50:43;;;;;;;7.32;5.05;;;;;;;12.78;60.03;95868.56;4160792;28;20210;-52
2022/05/19 06:52:48;;;;;;;7.65;4.72;;;;;;;12.97;59.39;95868.50;4160635;28;20127;-50
2022/05/19 06:54:52;;;;;;;10.65;5.13;;;;;;;13.11;58.93;95870.63;4159084;28;20477;-51
2022/05/19 06:56:53;;;;;;;10.32;6.43;;;;;;;13.13;58.58;95864.41;4160457;28;20084;-49
2022/05/19 06:58:56;;;;;;;7.15;5.45;;;;;;;13.15;59.19;95867.72;4160101;28;20057;-50
2022/05/19 07:00:57;;;;;;;13.27;5.32;;;;;;;13.03;58.20;95865.25;4160408;28;20191;-50
2022/05/19 07:03:00;;;;;;;15.43;5.10;;;;;;;12.77;58.41;95872.16;4160461;28;20401;-50
2022/05/19 07:05:02;;;;;;;10.03;5.43;;;;;;;12.77;59.00;95877.41;4176600;28;20069;-50
2022/05/19 07:07:06;;;;;;;9.90;4.55;;;;;;;12.98;57.62;95874.59;4176720;28;20620;-52
2022/05/19 07:09:08;;;;;;;7.30;4.75;;;;;;;12.74;58.82;95888.25;4174782;28;20048;-51
2022/05/19 07:11:24;;;;;;;8.95;5.75;;;;;;;12.99;58.66;95881.50;4176641;28;20122;-53
2022/05/19 07:13:30;;;;;;;7.03;4.30;;;;;;;13.36;57.53;95876.22;4175046;28;20080;-52
2022/05/19 07:15:32;;;;;;;7.53;4.63;;;;;;;13.67;56.99;95875.88;4164627;28;20057;-49
2022/05/19 07:17:34;;;;;;;7.13;4.53;;;;;;;13.99;56.71;95869.28;4176558;28;20088;-53
2022/05/19 07:21:56;;;;;;;9.55;4.90;;;;;;;14.52;54.18;95874.47;4176440;28;20049;-53
2022/05/19 07:23:58;;;;;;;7.38;3.85;;;;;;;14.34;52.72;95877.13;4174835;28;20053;-54
2022/05/19 07:26:00;;;;;;;7.47;4.57;;;;;;;14.17;53.75;95872.72;4176545;28;20048;-54
2022/05/19 07:28:01;;;;;;;11.07;4.60;;;;;;;13.90;54.23;95882.38;4176203;28;20529;-52
2022/05/19 07:30:04;;;;;;;12.27;5.55;;;;;;;13.72;54.54;95876.25;4176311;28;20080;-53
2022/05/19 07:32:06;;;;;;;11.18;5.32;;;;;;;13.62;55.33;95871.06;4176555;28;20076;-57
2022/05/19 07:34:10;;;;;;;9.70;5.03;;;;;;;13.88;55.15;95868.53;4175492;28;20418;-52
2022/05/19 07:36:12;;;;;;;9.30;4.22;;;;;;;14.23;54.47;95863.38;4176483;28;20071;-52
2022/05/19 07:38:14;;;;;;;11.32;3.85;;;;;;;14.50;53.35;95862.44;4174663;28;20149;-51
2022/05/19 07:40:16;;;;;;;8.73;4.30;;;;;;;14.54;50.96;95861.16;4176341;28;20063;-51
2022/05/19 07:42:19;;;;;;;10.35;4.70;;;;;;;14.47;51.09;95860.91;4174776;28;20049;-52
2022/05/19 07:44:21;;;;;;;14.15;5.40;;;;;;;14.34;51.00;95858.69;4176405;28;20190;-57
2022/05/19 07:46:27;;;;;;;6.60;3.65;;;;;;;14.43;50.31;95866.66;4176144;28;20484;-54
2022/05/19 07:48:29;;;;;;;8.18;2.95;;;;;;;14.52;48.82;95865.75;4169525;28;20079;-55
2022/05/19 07:50:30;;;;;;;6.15;2.17;;;;;;;14.70;47.33;95857.78;4159896;28;20456;-52
2022/05/19 07:52:32;;;;;;;4.90;2.13;;;;;;;14.89;45.48;95862.03;4159833;28;20198;-53
2022/05/19 07:54:34;;;;;;;6.18;2.20;;;;;;;15.14;44.59;95866.44;4158103;28;20054;-49
2022/05/19 07:56:37;;;;;;;3.90;1.67;;;;;;;15.26;42.45;95866.16;4159919;28;20127;-49
2022/05/19 07:58:39;;;;;;;4.90;1.80;;;;;;;15.39;41.75;95863.88;4159634;28;20049;-53
2022/05/19 08:00:41;;;;;;;5.68;1.85;;;;;;;15.41;41.12;95864.53;4159620;28;20122;-51
2022/05/19 08:02:43;;;;;;;3.92;1.98;;;;;;;15.55;40.13;95869.22;4159569;28;20071;-52
2022/05/19 08:04:45;;;;;;;3.42;2.00;;;;;;;15.70;40.48;95860.66;4174035;28;20114;-52
2022/05/19 08:06:47;;;;;;;8.88;2.55;;;;;;;15.69;41.28;95859.81;4176219;28;20048;-55
2022/05/19 08:08:50;;;;;;;5.40;2.05;;;;;;;15.41;42.24;95858.44;4174499;28;20052;-53
2022/05/19 08:10:53;;;;;;;8.60;2.50;;;;;;;15.32;44.17;95857.59;4175888;28;20129;-50
2022/05/19 08:15:36;;;;;;;6.18;1.83;;;;;;;15.85;42.22;95855.59;4168071;28;20111;-53
2022/05/19 08:17:38;;;;;;;4.38;1.92;;;;;;;16.18;41.72;95854.63;4168965;28;20468;-56
2022/05/19 08:19:42;;;;;;;3.25;1.98;;;;;;;16.46;42.25;95856.09;4175621;28;20049;-52
2022/05/19 08:21:44;;;;;;;6.75;2.80;;;;;;;16.52;40.82;95858.06;4171087;28;20049;-51
2022/05/19 08:23:48;;;;;;;5.32;2.22;;;;;;;16.45;39.73;95857.91;4157968;28;20123;-54
2022/05/19 08:25:50;;;;;;;5.22;2.50;;;;;;;16.32;39.96;95855.75;4159204;28;20439;-52
2022/05/19 08:27:51;;;;;;;4.93;2.08;;;;;;;16.52;40.17;95850.97;4159317;28;20046;-49
2022/05/19 08:29:53;;;;;;;5.80;2.22;;;;;;;16.66;39.91;95854.72;4159436;28;20050;-52
2022/05/19 08:31:55;;;;;;;9.25;2.33;;;;;;;16.59;39.66;95849.28;4159516;28;20087;-53
2022/05/19 08:33:58;;;;;;;4.88;2.10;;;;;;;16.55;38.92;95849.78;4175598;28;20498;-49
2022/05/19 08:36:00;;;;;;;5.15;2.40;;;;;;;16.45;38.29;95851.78;4175762;28;20053;-51
2022/05/19 08:38:01;;;;;;;7.00;2.10;;;;;;;16.00;38.06;95853.13;4173222;28;20573;-55
2022/05/19 08:40:05;;;;;;;4.45;1.98;;;;;;;15.64;38.00;95851.56;4160222;28;20141;-50
2022/05/19 08:42:07;;;;;;;3.67;1.90;;;;;;;15.84;39.08;95849.47;4173098;28;20473;-54
2022/05/19 08:44:18;;;;;;;5.68;2.33;;;;;;;16.17;38.95;95847.69;4175499;28;20057;-52
2022/05/19 08:46:28;;;;;;;2.45;1.40;;;;;;;16.42;37.24;95849.50;4174375;28;20351;-52
2022/05/19 08:48:30;;;;;;;2.83;1.50;;;;;;;16.69;37.47;95846.47;4169526;28;20148;-51
2022/05/19 08:50:40;;;;;;;3.65;1.88;;;;;;;16.94;36.83;95843.78;4159327;28;20104;-50
2022/05/19 08:52:46;;;;;;;4.40;1.90;;;;;;;17.20;34.63;95846.97;4159343;28;20057;-60
2022/05/19 08:54:49;;;;;;;3.90;1.25;;;;;;;17.39;34.09;95837.78;4160395;28;20049;-52
2022/05/19 08:56:58;;;;;;;8.23;1.45;;;;;;;17.63;34.22;95840.50;4168141;28;20052;-52
2022/05/19 08:59:11;;;;;;;3.20;1.83;;;;;;;17.42;34.21;95838.44;4175718;28;20045;-52
2022/05/19 09:01:22;;;;;;;5.53;1.38;;;;;;;17.27;35.02;95833.06;4179091;28;20126;-52
2022/05/19 09:03:37;;;;;;;5.65;1.60;;;;;;;17.18;34.05;95829.63;4176906;28;20162;-52
2022/05/19 09:05:39;;;;;;;3.85;2.03;;;;;;;17.08;34.40;95829.84;4177512;28;20122;-52
2022/05/19 09:07:59;;;;;;;7.25;1.50;;;;;;;17.25;34.67;95824.47;4178663;28;20155;-51
2022/05/19 09:10:14;;;;;;;2.58;1.20;;;;;;;17.57;34.69;95819.00;4178452;28;20059;-55
2022/05/19 09:12:19;;;;;;;4.15;1.13;;;;;;;17.42;32.48;95820.72;4175691;28;20396;-52
2022/05/19 09:14:27;;;;;;;7.95;1.42;;;;;;;17.39;33.11;95813.97;4178373;28;20045;-54
2022/05/19 09:16:33;;;;;;;2.45;1.20;;;;;;;17.70;33.54;95814.94;4170308;28;20041;-52
2022/05/19 09:18:38;;;;;;;3.95;1.25;;;;;;;17.84;32.94;95806.25;4162565;28;20076;-54
2022/05/19 09:20:47;;;;;;;7.68;2.33;;;;;;;17.56;32.43;95812.03;4162113;28;20058;-53
2022/05/19 09:22:48;;;;;;;6.25;3.47;;;;;;;17.31;31.92;95816.63;4160439;28;20057;-54
2022/05/19 09:24:52;;;;;;;6.47;1.48;;;;;;;17.04;33.17;95811.84;4160743;28;20107;-52
2022/05/19 09:26:55;;;;;;;6.13;1.58;;;;;;;16.96;33.57;95807.38;4162121;28;20049;-53
2022/05/19 09:29:05;;;;;;;2.38;1.30;;;;;;;16.87;33.79;95795.19;4162144;28;20053;-54
2022/05/19 09:31:06;;;;;;;3.95;1.27;;;;;;;17.20;34.33;95806.44;4162039;28;20758;-53
2022/05/19 09:33:19;;;;;;;3.83;1.20;;;;;;;17.37;34.10;95808.00;4171697;28;20052;-56
2022/05/19 09:35:26;;;;;;;1.83;1.00;;;;;;;17.70;33.21;95806.97;4178519;28;20061;-53
2022/05/19 09:37:43;;;;;;;2.00;1.20;;;;;;;18.05;32.95;95804.75;4178541;28;20057;-52
2022/05/19 09:39:51;;;;;;;4.95;1.30;;;;;;;18.28;32.77;95794.94;4176914;28;20052;-53
2022/05/19 09:41:54;;;;;;;3.40;1.02;;;;;;;18.43;33.13;95808.22;4178481;28;20660;-54
2022/05/19 09:43:58;;;;;;;3.22;1.42;;;;;;;17.76;33.43;95796.50;4177040;28;20044;-56
2022/05/19 09:46:04;;;;;;;;;;;;;;;17.48;33.80;95808.63;4178788;28;20131;-53